Time;durP1;ratioP1;P1;durP2;ratioP2;P2;SDS_P1;SDS_P2;PMS_P1;PMS_P2;Temp;Humidity;BMP_temperature;BMP_pressure;BME280_temperature;BME280_humidity;BME280_pressure;Samples;Min_cycle;Max_cycle;Signal;HPM_P1;HPM_P2
2023/07/21 00:01:17;;;;;;;4.13;2.35;;;20.70;38.00;;;22.34;32.04;97181.75;5032425;28;20046;-50
2023/07/21 00:03:45;;;;;;;3.55;2.00;;;20.70;37.90;;;22.35;32.40;97182.56;5031518;28;20050;-48
2023/07/21 00:06:17;;;;;;;4.07;1.92;;;20.70;38.00;;;22.34;31.95;97175.50;5032055;28;20046;-50
2023/07/21 00:08:45;;;;;;;2.22;1.70;;;20.70;37.90;;;22.31;31.90;97176.00;5031011;28;20045;-49
2023/07/21 00:11:13;;;;;;;3.35;2.08;;;20.60;37.80;;;22.26;32.32;97171.31;5032224;28;20413;-50
2023/07/21 00:13:40;;;;;;;3.17;1.77;;;20.50;38.00;;;22.25;31.97;97175.09;5031733;28;20041;-52
2023/07/21 00:16:08;;;;;;;2.70;1.67;;;20.50;38.10;;;22.26;32.32;97163.19;5032184;28;20444;-52
2023/07/21 00:18:36;;;;;;;7.93;2.58;;;20.60;38.10;;;22.28;32.35;97171.91;5030935;28;20045;-52
2023/07/21 00:21:06;;;;;;;3.25;1.63;;;20.60;38.00;;;22.28;32.35;97163.75;5031923;28;20507;-52
2023/07/21 00:23:34;;;;;;;2.63;1.73;;;20.60;37.90;;;22.28;32.19;97160.25;5031522;28;20412;-51
2023/07/21 00:26:02;;;;;;;1.77;1.50;;;20.60;37.90;;;22.29;31.85;97165.38;5031623;28;20065;-53
2023/07/21 00:28:30;;;;;;;1.98;1.60;;;20.60;37.70;;;22.27;32.29;97167.53;5031788;28;20049;-47
2023/07/21 00:30:58;;;;;;;3.03;1.60;;;20.60;37.70;;;22.28;31.98;97165.66;5030676;28;20438;-50
2023/07/21 00:33:26;;;;;;;4.82;2.08;;;20.60;37.90;;;22.28;32.18;97158.34;5031613;28;20037;-49
2023/07/21 00:35:55;;;;;;;2.10;1.60;;;20.70;37.90;;;22.29;32.34;97156.44;5031429;28;20041;-47
2023/07/21 00:38:23;;;;;;;2.42;1.70;;;20.70;37.80;;;22.27;32.35;97158.59;5014522;28;20513;-53
2023/07/21 00:40:50;;;;;;;2.55;1.70;;;20.60;37.80;;;22.23;31.78;97156.31;5031986;28;20045;-48
2023/07/21 00:43:18;;;;;;;2.60;1.70;;;20.50;37.60;;;22.19;32.06;97160.59;5029810;28;20049;-53
2023/07/21 00:45:46;;;;;;;2.33;1.85;;;20.50;37.70;;;22.18;32.22;97155.44;5005451;28;20049;-53
2023/07/21 00:48:17;;;;;;;3.10;1.90;;;20.50;37.80;;;22.17;32.19;97151.91;5030498;28;20068;-47
2023/07/21 00:50:52;;;;;;;2.72;2.15;;;20.50;37.80;;;22.18;32.21;97150.03;5030457;28;20048;-49
2023/07/21 00:53:20;;;;;;;3.67;1.80;;;20.50;37.80;;;22.20;32.34;97147.88;5029879;28;20056;-50
2023/07/21 00:55:50;;;;;;;2.58;1.88;;;20.60;37.90;;;22.21;32.21;97149.53;5031530;28;20042;-50
2023/07/21 00:58:19;;;;;;;3.17;1.60;;;20.60;37.70;;;22.20;32.07;97148.69;5031888;28;20053;-51
2023/07/21 01:00:47;;;;;;;2.13;1.48;;;20.60;37.90;;;22.20;31.90;97146.00;5030278;28;20045;-53
2023/07/21 01:03:17;;;;;;;3.30;2.35;;;20.60;37.70;;;22.19;31.98;97148.94;5029723;28;20428;-50
2023/07/21 01:05:50;;;;;;;1.95;1.70;;;20.50;37.60;;;22.17;32.01;97142.94;5030033;28;20054;-52
2023/07/21 01:08:22;;;;;;;2.40;1.65;;;20.60;37.40;;;22.16;32.00;97147.56;5029942;28;20046;-53
2023/07/21 01:10:51;;;;;;;1.60;1.50;;;20.50;37.40;;;22.17;32.02;97140.25;5029654;28;20045;-54
2023/07/21 01:13:21;;;;;;;2.85;1.48;;;20.60;37.30;;;22.16;32.03;97133.19;5013393;28;20049;-50
2023/07/21 01:15:53;;;;;;;2.28;1.67;;;20.50;37.40;;;22.17;31.98;97130.22;5030203;28;20045;-48
2023/07/21 01:18:21;;;;;;;4.45;1.90;;;20.50;37.40;;;22.20;31.95;97131.63;5029859;28;20053;-51
2023/07/21 01:20:50;;;;;;;2.70;1.60;;;20.60;37.40;;;22.17;32.15;97129.41;5013437;28;20532;-50
2023/07/21 01:23:53;;;;;;;3.47;1.95;;;20.50;37.50;;;22.16;32.07;97131.28;5030105;28;20049;-54
2023/07/21 01:26:23;;;;;;;3.95;1.70;;;20.50;37.70;;;22.19;32.19;97121.84;5009217;28;20045;-51
2023/07/21 01:28:51;;;;;;;3.83;1.52;;;20.60;37.60;;;22.22;31.83;97124.06;5029837;28;20054;-50
2023/07/21 01:31:20;;;;;;;1.65;1.45;;;20.60;37.50;;;22.21;31.92;97125.13;5013384;28;20053;-51
2023/07/21 01:33:49;;;;;;;2.83;1.73;;;20.60;37.40;;;22.21;32.10;97125.94;5028885;28;20068;-51
2023/07/21 01:36:18;;;;;;;4.28;2.15;;;20.60;37.40;;;22.20;33.32;97123.50;5014387;28;20052;-52
2023/07/21 01:38:46;;;;;;;3.75;1.90;;;20.50;39.50;;;22.12;33.52;97121.19;5030199;28;20045;-56
2023/07/21 01:41:15;;;;;;;3.97;1.80;;;20.40;41.10;;;22.01;34.09;97118.31;5031027;28;20029;-56
2023/07/21 01:43:44;;;;;;;2.35;1.85;;;20.20;41.30;;;21.89;34.35;97123.00;5029377;28;20524;-57
2023/07/21 01:46:12;;;;;;;3.03;1.90;;;20.10;42.10;;;21.82;34.50;97123.16;5030445;28;20040;-57
2023/07/21 01:48:40;;;;;;;3.20;1.95;;;20.00;42.20;;;21.77;34.43;97125.81;5029894;28;20041;-56
2023/07/21 01:51:08;;;;;;;2.38;1.80;;;20.00;42.20;;;21.73;34.29;97121.09;5030140;28;20037;-57
2023/07/21 01:53:37;;;;;;;3.20;2.05;;;19.90;41.60;;;21.70;34.05;97110.78;5013536;28;20069;-54
2023/07/21 01:56:30;;;;;;;2.78;1.70;;;19.90;41.10;;;21.67;33.90;97113.97;5021528;28;20042;-55
2023/07/21 01:59:05;;;;;;;2.38;1.70;;;19.80;40.90;;;21.67;33.74;97111.25;5014980;28;20061;-56
2023/07/21 02:01:36;;;;;;;3.33;1.90;;;19.80;40.90;;;21.65;34.07;97111.50;5030879;28;20407;-56
2023/07/21 02:04:04;;;;;;;3.10;1.88;;;19.90;41.00;;;21.65;33.97;97113.38;5029132;28;20041;-56
2023/07/21 02:06:32;;;;;;;2.08;1.80;;;19.90;40.80;;;21.61;34.13;97111.16;5013615;28;20516;-55
2023/07/21 02:09:00;;;;;;;2.40;1.60;;;19.80;40.80;;;21.62;33.89;97107.41;5031071;28;20049;-54
2023/07/21 02:11:28;;;;;;;2.72;1.73;;;19.80;40.60;;;21.65;34.03;97108.78;5030833;28;20041;-54
2023/07/21 02:14:07;;;;;;;2.97;1.63;;;19.90;40.50;;;21.67;34.10;97108.53;5021661;28;20048;-57
2023/07/21 02:16:35;;;;;;;2.42;1.70;;;19.90;40.70;;;21.66;34.31;97110.44;5029914;28;20041;-55
2023/07/21 02:19:06;;;;;;;3.35;1.92;;;19.90;40.90;;;21.65;33.88;97111.50;5029219;28;20049;-54
2023/07/21 02:21:34;;;;;;;2.20;1.52;;;19.90;41.10;;;21.63;34.43;97106.34;5031687;28;20057;-54
2023/07/21 02:24:02;;;;;;;2.42;2.05;;;19.90;41.10;;;21.62;34.06;97101.97;5031889;28;20417;-54
2023/07/21 02:26:32;;;;;;;2.53;2.08;;;19.90;41.40;;;21.62;34.58;97107.41;5032866;28;20045;-55
2023/07/21 02:29:00;;;;;;;3.90;1.95;;;19.90;41.40;;;21.60;34.21;97106.00;5033331;28;20505;-55
2023/07/21 02:31:28;;;;;;;3.47;1.95;;;19.80;40.90;;;21.51;34.52;97102.88;5032972;28;20046;-56
2023/07/21 02:33:56;;;;;;;2.83;1.65;;;19.80;41.00;;;21.42;34.45;97097.03;5033572;28;20417;-56
2023/07/21 02:36:24;;;;;;;2.05;1.63;;;19.70;41.10;;;21.43;34.54;97105.94;5033020;28;20049;-48
2023/07/21 02:38:52;;;;;;;3.95;2.38;;;19.70;41.30;;;21.45;34.68;97101.16;5032910;28;20045;-53
2023/07/21 02:41:20;;;;;;;2.35;2.03;;;19.80;41.30;;;21.49;34.28;97104.19;5032433;28;20056;-52
2023/07/21 02:43:48;;;;;;;2.10;1.70;;;19.80;41.10;;;21.50;34.48;97097.69;5032130;28;20420;-50
2023/07/21 02:46:15;;;;;;;3.55;2.10;;;19.90;41.10;;;21.53;34.21;97095.31;5033655;28;20060;-53
2023/07/21 02:48:43;;;;;;;3.50;2.00;;;19.90;41.10;;;21.56;34.67;97094.03;5029929;28;20037;-51
2023/07/21 02:51:11;;;;;;;3.33;1.83;;;19.80;41.00;;;21.58;34.50;97087.28;5034343;28;20519;-53
2023/07/21 02:53:45;;;;;;;3.83;1.80;;;19.90;40.90;;;21.57;34.63;97091.06;5032079;28;20045;-52
2023/07/21 02:56:15;;;;;;;3.25;1.70;;;19.80;41.00;;;21.58;34.26;97090.00;5032305;28;20516;-53
2023/07/21 02:58:58;;;;;;;3.03;1.83;;;19.80;41.00;;;21.60;34.59;97089.75;5032163;28;20052;-53
2023/07/21 03:01:26;;;;;;;2.50;1.60;;;19.90;41.20;;;21.60;34.14;97085.16;5032322;28;20493;-50
2023/07/21 03:03:55;;;;;;;2.20;1.60;;;19.90;41.00;;;21.58;34.50;97084.59;5030929;28;20045;-52
2023/07/21 03:06:23;;;;;;;3.28;2.10;;;19.80;41.70;;;21.53;35.01;97087.19;5031895;28;20045;-47
2023/07/21 03:08:55;;;;;;;2.67;1.70;;;19.80;42.30;;;21.45;35.34;97089.50;5016533;28;20417;-51
2023/07/21 03:11:26;;;;;;;2.78;2.25;;;19.70;42.80;;;21.40;35.16;97093.72;5031942;28;20416;-54
2023/07/21 03:14:16;;;;;;;1.95;1.70;;;19.60;42.50;;;21.36;35.32;97095.25;5032622;28;20052;-50
2023/07/21 03:16:44;;;;;;;2.83;1.95;;;19.50;42.70;;;21.33;35.38;97097.66;5031928;28;20497;-50
2023/07/21 03:19:11;;;;;;;2.42;2.00;;;19.50;43.10;;;21.29;35.93;97093.81;5031172;28;20049;-51
2023/07/21 03:21:42;;;;;;;2.63;1.90;;;19.40;43.60;;;21.25;35.78;97098.88;5031663;28;20049;-53
2023/07/21 03:24:10;;;;;;;3.08;2.20;;;19.40;43.70;;;21.21;35.66;97092.31;5030820;28;20045;-52
2023/07/21 03:26:38;;;;;;;2.25;1.60;;;19.40;44.10;;;21.17;35.89;97089.25;5034124;28;20046;-54
2023/07/21 03:29:06;;;;;;;2.90;1.90;;;19.30;44.30;;;21.17;36.41;97089.25;5031903;28;20057;-48
2023/07/21 03:31:36;;;;;;;5.75;1.90;;;19.40;44.20;;;21.16;36.25;97087.59;5031651;28;20049;-54
2023/07/21 03:34:14;;;;;;;4.70;2.15;;;19.40;44.20;;;21.14;36.26;97092.44;5032556;28;20045;-51
2023/07/21 03:36:43;;;;;;;4.85;2.38;;;19.30;44.10;;;21.11;36.11;97086.69;5031541;28;20048;-49
2023/07/21 03:39:11;;;;;;;2.47;2.15;;;19.30;44.30;;;21.09;36.03;97080.69;5031644;28;20060;-52
2023/07/21 03:41:39;;;;;;;3.22;1.80;;;19.30;44.40;;;21.08;36.48;97084.47;5032915;28;20045;-50
2023/07/21 03:44:09;;;;;;;4.53;2.03;;;19.20;44.50;;;21.06;36.26;97082.00;5031191;28;20076;-50
2023/07/21 03:46:40;;;;;;;4.47;1.95;;;19.20;44.80;;;21.02;36.66;97078.97;5031904;28;20048;-50
2023/07/21 03:49:30;;;;;;;2.58;1.98;;;19.20;45.40;;;20.98;36.89;97080.50;5024358;28;20410;-49
2023/07/21 03:52:05;;;;;;;2.45;1.85;;;19.10;45.70;;;20.96;36.83;97079.13;5030989;28;20049;-50
2023/07/21 03:54:34;;;;;;;2.42;1.75;;;19.10;45.70;;;20.95;37.04;97078.28;5030332;28;20050;-49
2023/07/21 03:57:01;;;;;;;4.05;1.92;;;19.10;45.70;;;20.94;36.90;97079.34;5031209;28;20511;-49
2023/07/21 03:59:29;;;;;;;3.90;1.88;;;19.10;45.80;;;20.93;37.05;97082.28;5030981;28;20496;-50
2023/07/21 04:01:57;;;;;;;2.80;2.17;;;19.10;45.60;;;20.93;36.79;97079.59;5014928;28;20049;-49
2023/07/21 04:04:25;;;;;;;3.22;2.00;;;19.10;45.40;;;20.93;36.95;97079.59;5023192;28;20041;-53
2023/07/21 04:06:52;;;;;;;2.65;1.88;;;19.10;45.90;;;20.91;36.94;97076.31;5031469;28;22125;-50
2023/07/21 04:09:20;;;;;;;4.88;1.95;;;19.00;45.70;;;20.89;37.04;97073.84;5031276;28;20049;-53
2023/07/21 04:11:48;;;;;;;3.17;2.08;;;19.00;45.90;;;20.87;37.10;97081.38;5014372;28;20045;-51
2023/07/21 04:14:15;;;;;;;2.83;1.95;;;19.00;45.90;;;20.85;37.01;97080.78;5013717;28;20046;-49
2023/07/21 04:16:43;;;;;;;3.45;2.20;;;19.00;46.00;;;20.81;37.38;97080.44;5031138;28;20046;-51
2023/07/21 04:19:11;;;;;;;5.50;1.98;;;18.90;46.40;;;20.79;37.62;97074.47;5031033;28;20128;-52
2023/07/21 04:21:39;;;;;;;2.97;1.90;;;18.90;46.60;;;20.78;37.54;97080.09;5031143;28;20056;-51
2023/07/21 04:24:07;;;;;;;4.57;2.25;;;18.90;46.50;;;20.75;37.56;97088.72;5030131;28;20509;-52
2023/07/21 04:26:34;;;;;;;5.70;2.03;;;18.90;46.50;;;20.71;37.38;97082.97;5030523;28;20429;-52
2023/07/21 04:29:02;;;;;;;2.65;1.98;;;18.80;46.20;;;20.69;37.23;97081.56;5031513;28;20033;-52
2023/07/21 04:31:35;;;;;;;3.72;2.20;;;18.80;46.20;;;20.68;37.47;97080.72;5030901;28;20061;-47
2023/07/21 04:34:07;;;;;;;5.07;2.45;;;18.80;46.20;;;20.70;37.58;97084.00;5029898;28;20052;-48
2023/07/21 04:36:37;;;;;;;3.47;1.90;;;18.90;46.20;;;20.71;37.33;97084.84;5030616;28;20049;-47
2023/07/21 04:39:12;;;;;;;3.22;2.00;;;18.90;46.10;;;20.72;37.37;97086.47;5030132;28;20053;-47
2023/07/21 04:41:40;;;;;;;2.47;1.70;;;18.90;46.10;;;20.74;37.66;97087.06;5031731;28;20042;-50
2023/07/21 04:44:08;;;;;;;3.70;2.60;;;18.90;46.40;;;20.77;37.64;97075.78;5029776;28;20064;-49
2023/07/21 04:46:36;;;;;;;3.78;1.88;;;19.10;46.30;;;20.81;37.83;97085.03;5030231;28;20060;-53
2023/07/21 04:49:07;;;;;;;3.55;2.05;;;19.10;46.40;;;20.85;37.49;97078.09;5029613;28;20053;-51
2023/07/21 04:51:42;;;;;;;3.90;2.15;;;19.20;46.00;;;20.91;37.09;97079.00;5029920;28;20049;-52
2023/07/21 04:54:11;;;;;;;6.40;2.70;;;19.20;45.50;;;20.92;37.20;97083.34;5029852;28;20041;-53
2023/07/21 04:56:39;;;;;;;3.22;1.63;;;19.30;45.30;;;20.94;36.92;97082.06;5029658;28;20072;-50
2023/07/21 04:59:09;;;;;;;4.18;1.80;;;19.30;45.80;;;20.99;37.22;97078.63;5030012;28;20058;-51
2023/07/21 05:01:37;;;;;;;3.80;1.95;;;19.40;44.80;;;21.04;36.95;97087.66;5030849;28;20485;-52
2023/07/21 05:04:05;;;;;;;4.30;2.42;;;19.40;44.80;;;21.11;37.17;97086.69;5029569;28;20056;-50
2023/07/21 05:06:33;;;;;;;3.97;1.98;;;19.50;44.90;;;21.13;36.67;97085.41;5030217;28;20045;-53
2023/07/21 05:09:01;;;;;;;4.10;1.83;;;19.50;44.50;;;21.17;36.41;97089.25;5030268;28;20049;-51
2023/07/21 05:11:29;;;;;;;4.13;1.85;;;19.60;43.80;;;21.17;36.52;97094.66;5029994;28;20050;-49
2023/07/21 05:13:58;;;;;;;2.78;1.90;;;19.50;43.70;;;21.21;36.58;97089.59;5029233;28;20053;-47
2023/07/21 05:16:31;;;;;;;3.80;2.15;;;19.60;43.70;;;21.27;36.35;97095.91;5030483;28;20041;-51
2023/07/21 05:19:17;;;;;;;4.38;1.88;;;19.70;43.90;;;21.31;36.66;97087.06;5031703;28;20073;-52
2023/07/21 05:21:55;;;;;;;2.70;2.10;;;19.70;44.00;;;21.35;36.38;97090.94;5032945;28;20492;-51
2023/07/21 05:24:42;;;;;;;2.13;1.90;;;19.80;43.70;;;21.42;36.36;97094.31;5026695;28;20052;-52
2023/07/21 05:27:12;;;;;;;2.10;1.40;;;19.80;43.50;;;21.46;35.86;97085.72;5013571;28;20061;-50
2023/07/21 05:29:45;;;;;;;2.28;1.90;;;19.90;42.90;;;21.51;35.65;97088.53;5029950;28;20041;-51
2023/07/21 05:32:15;;;;;;;3.40;1.80;;;19.90;42.80;;;21.57;35.82;97092.94;5028582;28;20061;-53
2023/07/21 05:34:49;;;;;;;3.13;2.00;;;20.00;42.60;;;21.62;35.59;97090.34;5030969;28;20033;-50
2023/07/21 05:37:17;;;;;;;3.03;1.90;;;20.10;42.20;;;21.62;35.43;97091.16;5029459;28;20231;-50
2023/07/21 05:39:48;;;;;;;2.30;1.70;;;20.10;41.90;;;21.64;35.02;97088.19;5030115;28;20046;-50
2023/07/21 05:42:19;;;;;;;4.00;2.28;;;20.10;41.80;;;21.63;34.73;97094.66;5028843;28;20049;-50
2023/07/21 05:44:47;;;;;;;3.78;1.65;;;20.10;41.40;;;21.66;34.97;97087.97;5029932;28;20120;-49
2023/07/21 05:47:18;;;;;;;2.88;1.77;;;20.10;41.40;;;21.66;35.19;97087.97;5029332;28;20053;-48
2023/07/21 05:49:50;;;;;;;3.40;2.90;;;20.10;41.70;;;21.66;34.88;97088.78;5027325;28;20041;-50
2023/07/21 05:52:19;;;;;;;2.20;1.40;;;20.10;41.60;;;21.67;35.21;97084.16;5029256;28;20049;-51
2023/07/21 05:54:48;;;;;;;2.92;1.75;;;20.10;41.80;;;21.68;35.02;97075.00;5030233;28;20050;-46
2023/07/21 05:57:17;;;;;;;2.65;1.85;;;20.10;41.80;;;21.73;35.09;97075.91;5034678;28;20402;-48
2023/07/21 05:59:49;;;;;;;2.97;1.98;;;20.20;41.70;;;21.78;35.06;97081.38;5033802;28;20046;-49
2023/07/21 06:02:17;;;;;;;3.00;1.80;;;20.30;41.80;;;21.85;35.27;97074.97;5033274;28;20056;-48
2023/07/21 06:04:51;;;;;;;3.47;2.00;;;20.40;41.80;;;21.88;35.31;97083.44;5033714;28;20049;-48
2023/07/21 06:07:37;;;;;;;3.03;1.77;;;20.40;41.80;;;21.87;35.12;97083.66;5033762;28;20056;-50
2023/07/21 06:10:28;;;;;;;3.80;1.80;;;20.30;42.10;;;21.92;35.24;97087.28;5033057;28;20065;-47
2023/07/21 06:13:01;;;;;;;2.15;1.80;;;20.40;42.00;;;21.98;35.29;97085.47;5032875;28;20038;-49
2023/07/21 06:15:37;;;;;;;6.35;1.80;;;20.50;42.40;;;21.94;36.24;97087.03;5034444;28;20045;-47
2023/07/21 06:18:16;;;;;;;3.63;2.13;;;20.40;43.50;;;21.87;35.97;97094.50;5034605;28;20424;-49
2023/07/21 06:20:44;;;;;;;3.42;1.60;;;20.30;43.20;;;21.84;36.27;97103.97;5032981;28;20417;-48
2023/07/21 06:23:12;;;;;;;2.63;2.05;;;20.30;43.80;;;21.88;36.59;97109.72;5032445;28;20080;-47
2023/07/21 06:25:41;;;;;;;4.00;2.00;;;20.30;44.90;;;21.90;36.94;97102.16;5033258;28;20500;-55
2023/07/21 06:28:13;;;;;;;2.47;1.83;;;20.30;45.10;;;21.93;37.05;97107.91;5033229;28;20413;-46
2023/07/21 06:30:41;;;;;;;3.22;1.77;;;20.30;45.50;;;21.91;36.48;97104.63;5008455;28;20042;-51
2023/07/21 06:33:13;;;;;;;3.72;1.95;;;20.30;44.40;;;21.80;37.04;97108.22;5014902;28;20042;-50
2023/07/21 06:35:45;;;;;;;4.43;2.08;;;20.20;44.70;;;21.77;36.79;97109.56;5027172;28;20054;-46
2023/07/21 06:38:19;;;;;;;2.42;1.60;;;20.20;44.50;;;21.75;36.89;97108.97;5027618;28;20057;-49
2023/07/21 06:41:12;;;;;;;2.25;2.03;;;20.10;44.50;;;21.66;36.69;97112.34;5026971;28;20050;-48
2023/07/21 06:44:11;;;;;;;4.97;2.17;;;20.00;44.80;;;21.55;37.08;97105.91;5012727;28;20164;-46
2023/07/21 06:46:59;;;;;;;4.88;2.20;;;19.90;45.60;;;21.49;36.78;97105.00;5026268;28;20046;-46
2023/07/21 06:49:46;;;;;;;3.10;2.10;;;19.80;45.00;;;21.40;37.72;97111.84;5028129;28;20077;-49
2023/07/21 06:52:24;;;;;;;4.50;2.55;;;19.80;45.60;;;21.38;37.83;97116.69;5019754;28;20049;-46
2023/07/21 06:54:51;;;;;;;4.43;1.95;;;19.90;46.40;;;21.26;38.15;97113.22;5031015;28;20045;-49
2023/07/21 06:57:19;;;;;;;3.40;2.38;;;19.70;46.60;;;21.38;38.34;97112.13;5032693;28;20042;-49
2023/07/21 06:59:48;;;;;;;2.92;2.30;;;19.90;46.60;;;21.39;38.74;97113.75;5032474;28;20083;-47
2023/07/21 07:02:17;;;;;;;4.18;2.22;;;20.00;47.50;;;21.46;38.52;97108.22;5031859;28;20068;-49
2023/07/21 07:04:47;;;;;;;3.47;2.22;;;20.10;47.30;;;21.33;39.16;97105.78;5032654;28;20053;-48
2023/07/21 07:07:15;;;;;;;8.00;2.30;;;20.00;47.60;;;21.45;39.42;97105.75;5015172;28;20060;-49
2023/07/21 07:09:43;;;;;;;4.75;2.03;;;20.10;47.60;;;21.56;39.18;97108.38;5032014;28;20053;-48
2023/07/21 07:12:11;;;;;;;3.22;2.60;;;20.30;46.80;;;21.68;38.81;97112.91;5031875;28;20053;-58
2023/07/21 07:14:46;;;;;;;3.65;2.17;;;20.40;46.40;;;21.76;38.31;97115.22;5023970;28;20046;-55
2023/07/21 07:17:13;;;;;;;5.07;2.50;;;20.50;46.20;;;21.85;38.09;97110.19;5032042;28;20195;-58
2023/07/21 07:19:41;;;;;;;5.40;2.40;;;20.60;45.80;;;21.85;38.30;97116.44;5031818;28;20041;-59
2023/07/21 07:22:09;;;;;;;3.63;2.05;;;20.60;45.80;;;21.93;38.21;97112.50;5033737;28;20049;-48
2023/07/21 07:24:38;;;;;;;5.28;2.30;;;20.60;45.70;;;22.04;37.87;97111.56;5029593;28;20061;-48
2023/07/21 07:27:06;;;;;;;3.22;2.10;;;20.80;46.40;;;22.14;37.78;97114.47;5031894;28;20053;-47
2023/07/21 07:29:37;;;;;;;4.47;2.97;;;20.90;45.10;;;22.21;37.67;97111.56;5032903;28;20049;-49
2023/07/21 07:32:05;;;;;;;2.67;1.90;;;20.90;44.30;;;22.25;36.73;97109.22;5033029;28;20501;-49
2023/07/21 07:34:33;;;;;;;4.18;2.10;;;20.90;43.90;;;22.27;36.97;97107.88;5032617;28;20045;-46
2023/07/21 07:37:01;;;;;;;6.35;2.08;;;20.90;44.00;;;22.32;37.19;97116.09;5032937;28;20052;-53
2023/07/21 07:39:30;;;;;;;4.38;2.22;;;21.00;44.10;;;22.44;36.67;97117.88;5031489;28;20056;-52
2023/07/21 07:41:57;;;;;;;2.50;2.13;;;21.10;43.80;;;22.48;36.86;97122.56;5029195;28;20056;-51
2023/07/21 07:44:25;;;;;;;8.77;2.28;;;21.10;43.80;;;22.54;37.09;97121.53;5018694;28;20053;-46
2023/07/21 07:48:22;;;;;;;2.95;1.92;;;21.20;44.10;;;22.66;37.13;97121.44;5015004;28;20056;-49
2023/07/21 07:50:53;;;;;;;4.05;2.53;;;21.50;43.50;;;22.71;36.38;97120.69;5025086;28;20049;-49
2023/07/21 07:53:21;;;;;;;3.72;2.47;;;21.40;43.10;;;22.72;36.82;97127.75;5028895;28;20056;-49
2023/07/21 07:55:49;;;;;;;4.18;1.83;;;21.40;43.30;;;22.72;36.48;97128.59;5021580;28;20046;-51
2023/07/21 07:58:16;;;;;;;3.88;2.35;;;21.40;43.00;;;22.78;36.04;97129.47;5032776;28;20052;-53
2023/07/21 08:00:45;;;;;;;4.15;1.90;;;21.50;42.30;;;22.84;36.21;97136.59;5033433;28;20049;-52
2023/07/21 08:03:14;;;;;;;4.55;2.67;;;21.60;42.40;;;22.78;35.48;97129.47;5033148;28;20049;-50
2023/07/21 08:05:42;;;;;;;4.10;2.25;;;21.50;42.00;;;22.84;35.63;97130.31;5033122;28;20046;-46
2023/07/21 08:08:09;;;;;;;3.28;1.98;;;21.50;42.30;;;22.95;35.81;97129.38;5032613;28;20057;-52
2023/07/21 08:10:41;;;;;;;6.63;2.28;;;21.70;42.50;;;23.04;35.44;97133.34;5033532;28;20052;-53
2023/07/21 08:13:09;;;;;;;3.53;2.13;;;21.80;41.30;;;23.05;34.99;97139.56;5030806;28;20116;-54
2023/07/21 08:15:41;;;;;;;4.00;2.25;;;21.80;40.70;;;23.06;34.63;97138.50;5031991;28;20048;-50
2023/07/21 08:18:11;;;;;;;2.85;2.03;;;21.70;40.00;;;22.97;34.79;97132.66;5029363;28;20409;-51
2023/07/21 08:20:40;;;;;;;2.47;2.25;;;21.60;40.90;;;23.06;34.94;97131.19;5032233;28;20420;-52
2023/07/21 08:23:08;;;;;;;2.00;1.67;;;21.70;40.90;;;23.11;34.75;97125.81;5032048;28;20053;-54
2023/07/21 08:25:56;;;;;;;3.20;1.92;;;21.80;40.90;;;23.19;34.54;97125.38;5031989;28;20057;-51
2023/07/21 08:28:24;;;;;;;3.95;2.05;;;22.00;40.00;;;23.19;33.82;97129.97;5031566;28;20045;-54
2023/07/21 08:30:52;;;;;;;2.33;1.60;;;22.00;38.80;;;23.21;33.87;97130.53;5031884;28;20408;-51
2023/07/21 08:33:27;;;;;;;2.38;1.92;;;22.10;39.00;;;23.31;33.78;97127.13;5031745;28;20076;-54
2023/07/21 08:35:54;;;;;;;3.13;1.90;;;22.20;38.90;;;23.38;33.42;97131.28;5031817;28;20044;-52
2023/07/21 08:38:22;;;;;;;2.47;2.08;;;22.20;38.60;;;23.39;33.76;97130.19;5031662;28;20377;-50
2023/07/21 08:41:07;;;;;;;2.30;1.88;;;22.20;39.10;;;23.42;33.01;97128.03;5031585;28;20041;-52
2023/07/21 08:43:35;;;;;;;3.63;2.10;;;22.30;38.90;;;23.51;33.24;97132.75;5024045;28;20041;-54
2023/07/21 08:46:07;;;;;;;2.75;1.90;;;22.40;38.10;;;23.49;33.16;97124.03;5032055;28;20053;-53
2023/07/21 08:48:35;;;;;;;2.85;2.30;;;22.40;38.00;;;23.53;33.02;97127.06;5021010;28;20045;-51
2023/07/21 08:51:06;;;;;;;3.15;1.85;;;22.40;37.50;;;23.58;32.08;97130.63;5028183;28;20053;-54
2023/07/21 08:53:33;;;;;;;3.15;1.95;;;22.40;36.30;;;23.61;32.17;97133.91;5031380;28;20064;-52
2023/07/21 08:56:02;;;;;;;4.25;1.85;;;22.40;36.40;;;23.51;32.04;97138.16;5031689;28;20037;-52
2023/07/21 08:58:30;;;;;;;3.05;2.15;;;22.40;36.20;;;23.64;32.34;97136.94;5031024;28;20041;-54
2023/07/21 09:00:58;;;;;;;2.28;1.75;;;22.40;37.30;;;23.69;32.64;97137.00;5031732;28;20049;-51
2023/07/21 09:03:30;;;;;;;2.55;2.17;;;22.50;37.60;;;23.71;32.40;97145.72;5031466;28;20053;-54
2023/07/21 09:06:00;;;;;;;4.13;2.00;;;22.50;37.10;;;23.66;32.29;97142.13;5030090;28;20048;-50
2023/07/21 09:08:32;;;;;;;1.88;1.52;;;22.50;37.10;;;23.73;32.52;97149.00;5030710;28;20512;-54
2023/07/21 09:11:02;;;;;;;2.13;1.88;;;22.60;37.20;;;23.73;32.57;97145.44;5030431;28;20048;-54
2023/07/21 09:13:32;;;;;;;2.28;1.80;;;22.50;37.50;;;23.77;32.48;97139.25;5030189;28;20049;-54
2023/07/21 09:16:07;;;;;;;2.97;1.80;;;22.50;37.30;;;23.78;32.41;97137.38;5031265;28;20053;-53
2023/07/21 09:18:43;;;;;;;2.08;1.63;;;22.50;37.10;;;23.83;32.47;97140.13;5030588;28;20048;-52
2023/07/21 09:21:22;;;;;;;3.08;1.50;;;22.50;37.60;;;23.71;31.63;97144.88;5030847;28;20041;-52
2023/07/21 09:23:51;;;;;;;2.50;1.85;;;22.50;36.00;;;23.68;31.94;97140.78;5030201;28;20037;-53
2023/07/21 09:26:23;;;;;;;3.67;1.90;;;22.40;36.70;;;23.75;32.21;97146.03;5030920;28;20056;-51
2023/07/21 09:28:52;;;;;;;3.40;1.85;;;22.50;37.00;;;23.90;31.67;97148.06;5031207;28;20448;-55
2023/07/21 09:31:33;;;;;;;2.28;1.90;;;22.70;36.10;;;24.00;31.52;97140.00;5034944;28;20041;-53
2023/07/21 09:34:07;;;;;;;3.75;2.30;;;22.90;35.30;;;24.14;31.73;97140.38;5035575;28;20053;-52
2023/07/21 09:36:36;;;;;;;3.03;1.85;;;23.10;36.00;;;24.13;31.24;97146.91;5034728;28;20041;-53
2023/07/21 09:39:04;;;;;;;2.17;1.90;;;23.20;35.20;;;24.08;30.50;97144.97;5034782;28;20048;-52
2023/07/21 09:41:34;;;;;;;4.70;2.03;;;23.10;33.90;;;24.23;30.56;97138.81;5033958;28;20041;-54
2023/07/21 09:44:02;;;;;;;3.58;1.75;;;23.30;34.30;;;24.24;29.91;97134.19;5034914;28;20044;-51
2023/07/21 09:46:30;;;;;;;3.05;2.25;;;23.20;33.50;;;24.22;29.83;97134.47;5034299;28;20057;-53
2023/07/21 09:48:59;;;;;;;4.32;1.90;;;23.10;33.70;;;24.27;30.28;97133.66;5034834;28;20046;-52
2023/07/21 09:51:29;;;;;;;3.42;2.13;;;23.10;34.30;;;24.21;30.26;97140.16;5033298;28;20038;-53
2023/07/21 09:54:03;;;;;;;3.33;2.03;;;23.00;34.50;;;24.18;29.99;97136.06;5033594;28;20516;-55
2023/07/21 09:56:36;;;;;;;2.10;1.90;;;22.90;34.70;;;24.11;30.34;97130.03;5033280;28;20050;-55
2023/07/21 09:59:06;;;;;;;2.17;1.65;;;22.80;34.50;;;24.11;30.52;97119.16;5033328;28;20056;-53
2023/07/21 10:01:34;;;;;;;5.00;1.77;;;22.80;34.70;;;24.11;30.46;97119.97;5033644;28;20052;-55
2023/07/21 10:04:03;;;;;;;3.67;2.45;;;22.90;34.60;;;24.17;30.64;97115.38;5033324;28;20054;-55
2023/07/21 10:06:32;;;;;;;2.85;1.90;;;23.00;34.60;;;24.23;29.86;97106.16;5032965;28;20417;-54
2023/07/21 10:09:03;;;;;;;2.58;1.50;;;23.10;33.50;;;24.29;29.97;97109.75;5034440;28;20053;-54
2023/07/21 10:11:31;;;;;;;2.97;1.88;;;23.20;33.70;;;24.35;29.90;97106.81;5034808;28;20046;-51
2023/07/21 10:13:58;;;;;;;2.67;2.03;;;23.30;33.40;;;24.31;30.40;97107.56;5033756;28;20045;-54
2023/07/21 10:16:29;;;;;;;5.30;2.38;;;23.20;34.40;;;24.35;30.50;97104.09;5035035;28;20604;-54
2023/07/21 10:19:10;;;;;;;4.80;2.20;;;23.30;34.50;;;24.32;30.76;97103.78;5035167;28;20030;-52
2023/07/21 10:21:52;;;;;;;2.53;1.80;;;23.30;35.00;;;24.33;30.10;97106.25;5027974;28;20061;-53
2023/07/21 10:24:27;;;;;;;3.75;2.00;;;23.30;33.40;;;24.36;30.54;97107.63;5034934;28;20068;-54
2023/07/21 10:27:03;;;;;;;5.10;2.42;;;23.30;34.70;;;24.35;30.38;97101.38;5034556;28;20045;-53
2023/07/21 10:29:31;;;;;;;3.13;2.13;;;23.30;34.30;;;24.32;30.62;97103.78;5034597;28;20046;-54
2023/07/21 10:32:03;;;;;;;5.22;2.78;;;23.20;34.80;;;24.40;30.73;97092.41;5034882;28;20044;-54
2023/07/21 10:34:41;;;;;;;3.45;2.20;;;23.30;35.00;;;24.44;30.52;97095.41;5033734;28;20042;-52
2023/07/21 10:37:09;;;;;;;5.97;1.90;;;23.40;34.20;;;24.46;30.75;97098.69;5033373;28;20053;-52